sensor_id;sensor_type;location;lat;lon;timestamp;temperature;humidity
42663;DHT22;44330;51.360;6.686;2023-08-06T00:00:12;15.90;90.40
42663;DHT22;44330;51.360;6.686;2023-08-06T00:02:38;15.90;90.40
42663;DHT22;44330;51.360;6.686;2023-08-06T00:05:04;15.90;90.20
42663;DHT22;44330;51.360;6.686;2023-08-06T00:07:29;15.90;90.10
42663;DHT22;44330;51.360;6.686;2023-08-06T00:09:55;15.90;90.20
42663;DHT22;44330;51.360;6.686;2023-08-06T00:12:20;15.90;90.10
42663;DHT22;44330;51.360;6.686;2023-08-06T00:14:50;15.90;90.20
42663;DHT22;44330;51.360;6.686;2023-08-06T00:17:16;15.80;90.30
42663;DHT22;44330;51.360;6.686;2023-08-06T00:19:42;15.80;90.30
42663;DHT22;44330;51.360;6.686;2023-08-06T00:22:07;15.80;90.50
42663;DHT22;44330;51.360;6.686;2023-08-06T00:24:34;15.70;90.50
42663;DHT22;44330;51.360;6.686;2023-08-06T00:26:59;15.80;90.30
42663;DHT22;44330;51.360;6.686;2023-08-06T00:29:25;15.70;90.20
42663;DHT22;44330;51.360;6.686;2023-08-06T00:31:50;15.60;90.20
42663;DHT22;44330;51.360;6.686;2023-08-06T00:34:16;15.70;90.30
42663;DHT22;44330;51.360;6.686;2023-08-06T00:36:41;15.70;90.30
42663;DHT22;44330;51.360;6.686;2023-08-06T00:39:07;15.60;90.30
42663;DHT22;44330;51.360;6.686;2023-08-06T00:41:32;15.60;90.20
42663;DHT22;44330;51.360;6.686;2023-08-06T00:43:58;15.60;90.10
42663;DHT22;44330;51.360;6.686;2023-08-06T00:46:24;15.60;90.30
42663;DHT22;44330;51.360;6.686;2023-08-06T00:48:50;15.60;90.00
42663;DHT22;44330;51.360;6.686;2023-08-06T00:51:16;15.60;89.90
42663;DHT22;44330;51.360;6.686;2023-08-06T00:53:42;15.60;89.60
42663;DHT22;44330;51.360;6.686;2023-08-06T00:56:09;15.60;89.70
42663;DHT22;44330;51.360;6.686;2023-08-06T00:58:35;15.50;89.70
42663;DHT22;44330;51.360;6.686;2023-08-06T01:01:01;15.60;89.80
42663;DHT22;44330;51.360;6.686;2023-08-06T01:03:27;15.50;89.80
42663;DHT22;44330;51.360;6.686;2023-08-06T01:05:52;15.50;89.80
42663;DHT22;44330;51.360;6.686;2023-08-06T01:11:38;15.60;90.20
42663;DHT22;44330;51.360;6.686;2023-08-06T01:14:34;15.50;90.30
42663;DHT22;44330;51.360;6.686;2023-08-06T01:17:02;15.50;90.50
42663;DHT22;44330;51.360;6.686;2023-08-06T01:19:29;15.50;90.50
42663;DHT22;44330;51.360;6.686;2023-08-06T01:21:55;15.50;90.40
42663;DHT22;44330;51.360;6.686;2023-08-06T01:24:21;15.50;90.50
42663;DHT22;44330;51.360;6.686;2023-08-06T01:27:10;15.50;90.50
42663;DHT22;44330;51.360;6.686;2023-08-06T01:29:44;15.50;90.60
42663;DHT22;44330;51.360;6.686;2023-08-06T01:32:11;15.50;90.60
42663;DHT22;44330;51.360;6.686;2023-08-06T01:34:40;15.50;90.60
42663;DHT22;44330;51.360;6.686;2023-08-06T01:37:07;15.50;90.60
42663;DHT22;44330;51.360;6.686;2023-08-06T01:39:35;15.50;90.50
42663;DHT22;44330;51.360;6.686;2023-08-06T01:42:01;15.50;90.50
42663;DHT22;44330;51.360;6.686;2023-08-06T01:44:27;15.50;90.40
42663;DHT22;44330;51.360;6.686;2023-08-06T01:46:53;15.60;90.50
42663;DHT22;44330;51.360;6.686;2023-08-06T01:49:18;15.60;90.40
42663;DHT22;44330;51.360;6.686;2023-08-06T01:51:47;15.60;90.40
42663;DHT22;44330;51.360;6.686;2023-08-06T01:54:13;15.60;90.50
42663;DHT22;44330;51.360;6.686;2023-08-06T01:56:38;15.60;90.50
42663;DHT22;44330;51.360;6.686;2023-08-06T01:59:04;15.60;90.50
42663;DHT22;44330;51.360;6.686;2023-08-06T02:01:29;15.60;90.40
42663;DHT22;44330;51.360;6.686;2023-08-06T02:03:55;15.60;90.30
42663;DHT22;44330;51.360;6.686;2023-08-06T02:06:22;15.60;90.10
42663;DHT22;44330;51.360;6.686;2023-08-06T02:08:49;15.70;90.10
42663;DHT22;44330;51.360;6.686;2023-08-06T02:11:15;15.70;90.10
42663;DHT22;44330;51.360;6.686;2023-08-06T02:13:40;15.70;90.00
42663;DHT22;44330;51.360;6.686;2023-08-06T02:16:09;15.70;89.50
42663;DHT22;44330;51.360;6.686;2023-08-06T02:18:35;15.70;89.00
42663;DHT22;44330;51.360;6.686;2023-08-06T02:21:00;15.70;89.40
42663;DHT22;44330;51.360;6.686;2023-08-06T02:23:27;15.70;89.20
42663;DHT22;44330;51.360;6.686;2023-08-06T02:26:04;15.70;89.20
42663;DHT22;44330;51.360;6.686;2023-08-06T02:28:31;15.60;89.80
42663;DHT22;44330;51.360;6.686;2023-08-06T02:30:58;15.70;90.00
42663;DHT22;44330;51.360;6.686;2023-08-06T02:33:23;15.60;89.80
42663;DHT22;44330;51.360;6.686;2023-08-06T02:35:49;15.70;90.20
42663;DHT22;44330;51.360;6.686;2023-08-06T02:38:15;15.60;89.70
42663;DHT22;44330;51.360;6.686;2023-08-06T02:40:44;15.60;89.90
42663;DHT22;44330;51.360;6.686;2023-08-06T02:43:10;15.60;90.20
42663;DHT22;44330;51.360;6.686;2023-08-06T02:45:37;15.50;90.30
42663;DHT22;44330;51.360;6.686;2023-08-06T02:48:04;15.50;90.50
42663;DHT22;44330;51.360;6.686;2023-08-06T02:50:29;15.50;90.60
42663;DHT22;44330;51.360;6.686;2023-08-06T02:52:55;15.50;90.70
42663;DHT22;44330;51.360;6.686;2023-08-06T02:55:22;15.40;90.80
42663;DHT22;44330;51.360;6.686;2023-08-06T02:57:47;15.40;90.90
42663;DHT22;44330;51.360;6.686;2023-08-06T03:00:13;15.40;91.00
42663;DHT22;44330;51.360;6.686;2023-08-06T03:02:38;15.40;91.10
42663;DHT22;44330;51.360;6.686;2023-08-06T03:05:04;15.40;91.20
42663;DHT22;44330;51.360;6.686;2023-08-06T03:07:31;15.40;91.20
42663;DHT22;44330;51.360;6.686;2023-08-06T03:09:59;15.40;91.20
42663;DHT22;44330;51.360;6.686;2023-08-06T03:12:26;15.40;91.20
42663;DHT22;44330;51.360;6.686;2023-08-06T03:14:52;15.40;91.20
42663;DHT22;44330;51.360;6.686;2023-08-06T03:17:18;15.40;91.30
42663;DHT22;44330;51.360;6.686;2023-08-06T03:19:43;15.50;91.30
42663;DHT22;44330;51.360;6.686;2023-08-06T03:22:09;15.40;91.30
42663;DHT22;44330;51.360;6.686;2023-08-06T03:24:34;15.40;91.30
42663;DHT22;44330;51.360;6.686;2023-08-06T03:27:00;15.50;91.30
42663;DHT22;44330;51.360;6.686;2023-08-06T03:29:25;15.50;91.00
42663;DHT22;44330;51.360;6.686;2023-08-06T03:31:52;15.50;91.00
42663;DHT22;44330;51.360;6.686;2023-08-06T03:34:17;15.40;90.90
42663;DHT22;44330;51.360;6.686;2023-08-06T03:36:43;15.40;91.10
42663;DHT22;44330;51.360;6.686;2023-08-06T03:39:09;15.50;91.20
42663;DHT22;44330;51.360;6.686;2023-08-06T03:41:34;15.40;91.10
42663;DHT22;44330;51.360;6.686;2023-08-06T03:44:00;15.40;91.10
42663;DHT22;44330;51.360;6.686;2023-08-06T03:46:28;15.40;91.10
42663;DHT22;44330;51.360;6.686;2023-08-06T03:48:53;15.40;91.20
42663;DHT22;44330;51.360;6.686;2023-08-06T03:51:19;15.40;91.30
42663;DHT22;44330;51.360;6.686;2023-08-06T03:53:44;15.40;91.40
42663;DHT22;44330;51.360;6.686;2023-08-06T03:56:10;15.40;91.50
42663;DHT22;44330;51.360;6.686;2023-08-06T03:58:35;15.30;91.50
42663;DHT22;44330;51.360;6.686;2023-08-06T04:01:02;15.30;91.50
42663;DHT22;44330;51.360;6.686;2023-08-06T04:03:28;15.30;91.60
42663;DHT22;44330;51.360;6.686;2023-08-06T04:05:54;15.30;91.70
42663;DHT22;44330;51.360;6.686;2023-08-06T04:08:20;15.30;91.70
42663;DHT22;44330;51.360;6.686;2023-08-06T04:10:50;15.20;91.70
42663;DHT22;44330;51.360;6.686;2023-08-06T04:13:16;15.20;91.80
42663;DHT22;44330;51.360;6.686;2023-08-06T04:15:42;15.20;91.80
42663;DHT22;44330;51.360;6.686;2023-08-06T04:18:07;15.20;91.80
42663;DHT22;44330;51.360;6.686;2023-08-06T04:20:33;15.10;91.90
42663;DHT22;44330;51.360;6.686;2023-08-06T04:22:58;15.20;91.90
42663;DHT22;44330;51.360;6.686;2023-08-06T04:25:24;15.10;92.00
42663;DHT22;44330;51.360;6.686;2023-08-06T04:27:50;15.20;92.00
42663;DHT22;44330;51.360;6.686;2023-08-06T04:30:15;15.10;92.10
42663;DHT22;44330;51.360;6.686;2023-08-06T04:32:41;15.10;92.10
42663;DHT22;44330;51.360;6.686;2023-08-06T04:35:07;15.10;92.20
42663;DHT22;44330;51.360;6.686;2023-08-06T04:37:32;15.10;92.30
42663;DHT22;44330;51.360;6.686;2023-08-06T04:39:58;15.20;92.40
42663;DHT22;44330;51.360;6.686;2023-08-06T04:42:23;15.20;92.40
42663;DHT22;44330;51.360;6.686;2023-08-06T04:44:49;15.20;92.70
42663;DHT22;44330;51.360;6.686;2023-08-06T04:47:15;15.10;92.50
42663;DHT22;44330;51.360;6.686;2023-08-06T04:49:41;15.20;92.50
42663;DHT22;44330;51.360;6.686;2023-08-06T04:52:06;15.20;92.50
42663;DHT22;44330;51.360;6.686;2023-08-06T04:54:32;15.20;92.50
42663;DHT22;44330;51.360;6.686;2023-08-06T04:56:57;15.20;92.50
42663;DHT22;44330;51.360;6.686;2023-08-06T04:59:23;15.30;92.60
42663;DHT22;44330;51.360;6.686;2023-08-06T05:01:48;15.30;92.60
42663;DHT22;44330;51.360;6.686;2023-08-06T05:04:14;15.30;92.60
42663;DHT22;44330;51.360;6.686;2023-08-06T05:06:39;15.30;92.70
42663;DHT22;44330;51.360;6.686;2023-08-06T05:09:06;15.30;92.70
42663;DHT22;44330;51.360;6.686;2023-08-06T05:11:32;15.30;92.70
42663;DHT22;44330;51.360;6.686;2023-08-06T05:13:57;15.30;92.60
42663;DHT22;44330;51.360;6.686;2023-08-06T05:16:23;15.30;92.60
42663;DHT22;44330;51.360;6.686;2023-08-06T05:18:49;15.30;92.60
42663;DHT22;44330;51.360;6.686;2023-08-06T05:21:14;15.30;92.60
42663;DHT22;44330;51.360;6.686;2023-08-06T05:23:42;15.40;92.60
42663;DHT22;44330;51.360;6.686;2023-08-06T05:26:07;15.40;92.50
42663;DHT22;44330;51.360;6.686;2023-08-06T05:28:33;15.40;92.40
42663;DHT22;44330;51.360;6.686;2023-08-06T05:31:03;15.50;92.40
42663;DHT22;44330;51.360;6.686;2023-08-06T05:33:28;15.60;92.50
42663;DHT22;44330;51.360;6.686;2023-08-06T05:35:54;15.70;92.10
42663;DHT22;44330;51.360;6.686;2023-08-06T05:38:19;15.70;92.00
42663;DHT22;44330;51.360;6.686;2023-08-06T05:40:45;15.80;91.80
42663;DHT22;44330;51.360;6.686;2023-08-06T05:43:10;15.90;91.50
42663;DHT22;44330;51.360;6.686;2023-08-06T05:45:36;16.00;91.30
42663;DHT22;44330;51.360;6.686;2023-08-06T05:48:01;16.10;91.20
42663;DHT22;44330;51.360;6.686;2023-08-06T05:50:27;16.20;91.00
42663;DHT22;44330;51.360;6.686;2023-08-06T05:52:53;16.20;90.80
42663;DHT22;44330;51.360;6.686;2023-08-06T05:55:20;16.30;90.70
42663;DHT22;44330;51.360;6.686;2023-08-06T05:57:45;16.40;90.30
42663;DHT22;44330;51.360;6.686;2023-08-06T06:00:11;16.50;89.40
42663;DHT22;44330;51.360;6.686;2023-08-06T06:02:37;16.50;86.50
42663;DHT22;44330;51.360;6.686;2023-08-06T06:05:02;16.60;86.90
42663;DHT22;44330;51.360;6.686;2023-08-06T06:07:28;16.60;86.70
42663;DHT22;44330;51.360;6.686;2023-08-06T06:09:53;16.70;86.60
42663;DHT22;44330;51.360;6.686;2023-08-06T06:12:19;16.80;86.00
42663;DHT22;44330;51.360;6.686;2023-08-06T06:14:45;16.90;83.90
42663;DHT22;44330;51.360;6.686;2023-08-06T06:17:10;17.00;83.10
42663;DHT22;44330;51.360;6.686;2023-08-06T06:19:36;17.10;83.90
42663;DHT22;44330;51.360;6.686;2023-08-06T06:22:02;17.20;84.60
42663;DHT22;44330;51.360;6.686;2023-08-06T06:24:27;17.30;83.80
42663;DHT22;44330;51.360;6.686;2023-08-06T06:26:53;17.40;81.60
42663;DHT22;44330;51.360;6.686;2023-08-06T06:29:18;17.50;81.80
42663;DHT22;44330;51.360;6.686;2023-08-06T06:31:44;17.60;79.00
42663;DHT22;44330;51.360;6.686;2023-08-06T06:34:09;17.60;74.30
42663;DHT22;44330;51.360;6.686;2023-08-06T06:36:35;17.70;72.60
42663;DHT22;44330;51.360;6.686;2023-08-06T06:39:00;17.70;76.00
42663;DHT22;44330;51.360;6.686;2023-08-06T06:41:26;17.70;78.40
42663;DHT22;44330;51.360;6.686;2023-08-06T06:43:52;17.70;77.70
42663;DHT22;44330;51.360;6.686;2023-08-06T06:46:17;17.70;78.30
42663;DHT22;44330;51.360;6.686;2023-08-06T06:48:43;17.70;76.10
42663;DHT22;44330;51.360;6.686;2023-08-06T06:51:08;17.70;76.20
42663;DHT22;44330;51.360;6.686;2023-08-06T06:53:34;17.70;73.70
42663;DHT22;44330;51.360;6.686;2023-08-06T06:56:04;17.60;74.30
42663;DHT22;44330;51.360;6.686;2023-08-06T06:58:30;17.70;74.20
42663;DHT22;44330;51.360;6.686;2023-08-06T07:00:56;17.60;73.60
42663;DHT22;44330;51.360;6.686;2023-08-06T07:03:21;17.60;72.90
42663;DHT22;44330;51.360;6.686;2023-08-06T07:05:47;17.60;70.80
42663;DHT22;44330;51.360;6.686;2023-08-06T07:08:12;17.70;70.10
42663;DHT22;44330;51.360;6.686;2023-08-06T07:10:40;17.70;69.30
42663;DHT22;44330;51.360;6.686;2023-08-06T07:13:06;17.80;72.10
42663;DHT22;44330;51.360;6.686;2023-08-06T07:15:31;17.70;75.80
42663;DHT22;44330;51.360;6.686;2023-08-06T07:17:57;17.70;76.40
42663;DHT22;44330;51.360;6.686;2023-08-06T07:20:23;17.70;75.80
42663;DHT22;44330;51.360;6.686;2023-08-06T07:22:48;17.60;75.00
42663;DHT22;44330;51.360;6.686;2023-08-06T07:25:15;17.60;74.70
42663;DHT22;44330;51.360;6.686;2023-08-06T07:27:41;17.70;75.20
42663;DHT22;44330;51.360;6.686;2023-08-06T07:30:07;17.80;75.00
42663;DHT22;44330;51.360;6.686;2023-08-06T07:32:33;17.70;74.60
42663;DHT22;44330;51.360;6.686;2023-08-06T07:34:59;17.90;74.60
42663;DHT22;44330;51.360;6.686;2023-08-06T07:37:28;18.00;72.80
42663;DHT22;44330;51.360;6.686;2023-08-06T07:39:54;18.10;71.20
42663;DHT22;44330;51.360;6.686;2023-08-06T07:42:20;18.20;71.00
42663;DHT22;44330;51.360;6.686;2023-08-06T07:44:58;18.30;68.80
42663;DHT22;44330;51.360;6.686;2023-08-06T07:47:24;18.40;66.30
42663;DHT22;44330;51.360;6.686;2023-08-06T07:49:50;18.40;63.40
42663;DHT22;44330;51.360;6.686;2023-08-06T07:52:15;18.50;62.40
42663;DHT22;44330;51.360;6.686;2023-08-06T07:54:41;18.50;57.70
42663;DHT22;44330;51.360;6.686;2023-08-06T07:57:07;18.60;62.20
42663;DHT22;44330;51.360;6.686;2023-08-06T07:59:32;18.60;56.80
42663;DHT22;44330;51.360;6.686;2023-08-06T08:01:58;18.60;56.40
42663;DHT22;44330;51.360;6.686;2023-08-06T08:04:24;18.80;61.40
42663;DHT22;44330;51.360;6.686;2023-08-06T08:06:50;18.90;60.80
42663;DHT22;44330;51.360;6.686;2023-08-06T08:09:15;19.00;55.50
42663;DHT22;44330;51.360;6.686;2023-08-06T08:11:41;19.00;49.10
42663;DHT22;44330;51.360;6.686;2023-08-06T08:14:07;19.10;53.60
42663;DHT22;44330;51.360;6.686;2023-08-06T08:16:33;19.10;49.00
42663;DHT22;44330;51.360;6.686;2023-08-06T08:18:58;19.10;45.20
42663;DHT22;44330;51.360;6.686;2023-08-06T08:21:24;19.20;52.80
42663;DHT22;44330;51.360;6.686;2023-08-06T08:23:50;19.30;47.10
42663;DHT22;44330;51.360;6.686;2023-08-06T08:26:16;19.40;45.30
42663;DHT22;44330;51.360;6.686;2023-08-06T08:28:42;19.40;42.30
42663;DHT22;44330;51.360;6.686;2023-08-06T08:31:11;19.50;38.30
42663;DHT22;44330;51.360;6.686;2023-08-06T08:33:40;19.60;42.90
42663;DHT22;44330;51.360;6.686;2023-08-06T08:36:05;19.70;26.40
42663;DHT22;44330;51.360;6.686;2023-08-06T08:38:31;19.90;31.80
42663;DHT22;44330;51.360;6.686;2023-08-06T08:40:57;20.20;33.50
42663;DHT22;44330;51.360;6.686;2023-08-06T08:43:23;20.50;29.00
42663;DHT22;44330;51.360;6.686;2023-08-06T08:45:53;20.80;12.00
42663;DHT22;44330;51.360;6.686;2023-08-06T08:48:24;20.60;13.70
42663;DHT22;44330;51.360;6.686;2023-08-06T08:50:50;20.40;16.10
42663;DHT22;44330;51.360;6.686;2023-08-06T08:53:17;20.30;17.20
42663;DHT22;44330;51.360;6.686;2023-08-06T08:55:43;20.10;26.80
42663;DHT22;44330;51.360;6.686;2023-08-06T08:58:10;20.00;16.90
42663;DHT22;44330;51.360;6.686;2023-08-06T09:00:35;19.90;27.10
42663;DHT22;44330;51.360;6.686;2023-08-06T09:03:02;19.80;35.30
42663;DHT22;44330;51.360;6.686;2023-08-06T09:05:31;19.70;25.40
42663;DHT22;44330;51.360;6.686;2023-08-06T09:08:03;19.70;29.20
42663;DHT22;44330;51.360;6.686;2023-08-06T09:10:28;19.70;29.90
42663;DHT22;44330;51.360;6.686;2023-08-06T09:12:55;19.70;32.30
42663;DHT22;44330;51.360;6.686;2023-08-06T09:15:24;19.70;34.30
42663;DHT22;44330;51.360;6.686;2023-08-06T09:17:51;19.70;34.50
42663;DHT22;44330;51.360;6.686;2023-08-06T09:20:17;19.70;33.80
42663;DHT22;44330;51.360;6.686;2023-08-06T09:22:43;19.60;28.80
42663;DHT22;44330;51.360;6.686;2023-08-06T09:25:09;19.50;33.50
42663;DHT22;44330;51.360;6.686;2023-08-06T09:27:38;19.50;34.20
42663;DHT22;44330;51.360;6.686;2023-08-06T09:30:05;19.20;38.10
42663;DHT22;44330;51.360;6.686;2023-08-06T09:32:48;19.20;43.20
42663;DHT22;44330;51.360;6.686;2023-08-06T09:35:19;19.30;50.40
42663;DHT22;44330;51.360;6.686;2023-08-06T09:37:45;19.20;45.50
42663;DHT22;44330;51.360;6.686;2023-08-06T09:40:30;19.30;43.40
42663;DHT22;44330;51.360;6.686;2023-08-06T09:42:57;19.30;35.50
42663;DHT22;44330;51.360;6.686;2023-08-06T09:45:29;19.40;40.30
42663;DHT22;44330;51.360;6.686;2023-08-06T09:47:59;19.20;37.90
42663;DHT22;44330;51.360;6.686;2023-08-06T09:50:30;19.10;44.30
42663;DHT22;44330;51.360;6.686;2023-08-06T09:52:57;19.00;43.50
42663;DHT22;44330;51.360;6.686;2023-08-06T09:55:24;19.00;48.60
42663;DHT22;44330;51.360;6.686;2023-08-06T09:57:53;19.00;50.80
42663;DHT22;44330;51.360;6.686;2023-08-06T10:00:20;19.00;54.50
42663;DHT22;44330;51.360;6.686;2023-08-06T10:02:46;18.90;57.40
42663;DHT22;44330;51.360;6.686;2023-08-06T10:05:12;18.90;56.60
42663;DHT22;44330;51.360;6.686;2023-08-06T10:07:38;18.80;53.60
42663;DHT22;44330;51.360;6.686;2023-08-06T10:10:05;18.70;53.60
42663;DHT22;44330;51.360;6.686;2023-08-06T10:12:38;18.40;65.00
42663;DHT22;44330;51.360;6.686;2023-08-06T10:15:08;18.20;72.00
42663;DHT22;44330;51.360;6.686;2023-08-06T10:17:35;18.10;75.20
42663;DHT22;44330;51.360;6.686;2023-08-06T10:20:04;17.90;76.00
42663;DHT22;44330;51.360;6.686;2023-08-06T10:22:33;17.70;75.80
42663;DHT22;44330;51.360;6.686;2023-08-06T10:24:59;17.50;76.80
42663;DHT22;44330;51.360;6.686;2023-08-06T10:27:40;17.20;80.90
42663;DHT22;44330;51.360;6.686;2023-08-06T10:30:25;16.80;84.90
42663;DHT22;44330;51.360;6.686;2023-08-06T10:32:58;16.70;85.80
42663;DHT22;44330;51.360;6.686;2023-08-06T10:35:37;16.50;86.00
42663;DHT22;44330;51.360;6.686;2023-08-06T10:38:12;16.40;88.00
42663;DHT22;44330;51.360;6.686;2023-08-06T10:45:56;16.10;88.10
42663;DHT22;44330;51.360;6.686;2023-08-06T10:48:36;15.90;86.40
42663;DHT22;44330;51.360;6.686;2023-08-06T10:51:02;15.80;86.90
42663;DHT22;44330;51.360;6.686;2023-08-06T10:53:28;15.70;89.00
42663;DHT22;44330;51.360;6.686;2023-08-06T10:55:54;15.70;90.00
42663;DHT22;44330;51.360;6.686;2023-08-06T10:58:20;15.60;89.30
42663;DHT22;44330;51.360;6.686;2023-08-06T11:00:46;15.60;90.40
42663;DHT22;44330;51.360;6.686;2023-08-06T11:03:11;15.60;90.40
42663;DHT22;44330;51.360;6.686;2023-08-06T11:05:37;15.50;90.80
42663;DHT22;44330;51.360;6.686;2023-08-06T11:08:03;15.50;90.60
42663;DHT22;44330;51.360;6.686;2023-08-06T11:10:33;15.50;91.00
42663;DHT22;44330;51.360;6.686;2023-08-06T11:13:17;15.50;91.00
42663;DHT22;44330;51.360;6.686;2023-08-06T11:15:44;15.60;91.00
42663;DHT22;44330;51.360;6.686;2023-08-06T11:18:10;15.50;91.00
42663;DHT22;44330;51.360;6.686;2023-08-06T11:20:36;15.60;90.90
42663;DHT22;44330;51.360;6.686;2023-08-06T11:23:02;15.50;90.70
42663;DHT22;44330;51.360;6.686;2023-08-06T11:25:28;15.50;90.60
42663;DHT22;44330;51.360;6.686;2023-08-06T11:27:54;15.40;91.20
42663;DHT22;44330;51.360;6.686;2023-08-06T11:30:20;15.40;90.90
42663;DHT22;44330;51.360;6.686;2023-08-06T11:32:48;15.40;91.20
42663;DHT22;44330;51.360;6.686;2023-08-06T11:35:18;15.40;91.30
42663;DHT22;44330;51.360;6.686;2023-08-06T11:37:47;15.40;91.50
42663;DHT22;44330;51.360;6.686;2023-08-06T11:40:15;15.40;91.50
42663;DHT22;44330;51.360;6.686;2023-08-06T11:42:46;15.40;91.60
42663;DHT22;44330;51.360;6.686;2023-08-06T11:45:11;15.50;91.90
42663;DHT22;44330;51.360;6.686;2023-08-06T11:47:53;15.60;91.80
42663;DHT22;44330;51.360;6.686;2023-08-06T11:50:39;15.60;91.70
42663;DHT22;44330;51.360;6.686;2023-08-06T11:53:13;15.70;92.10
42663;DHT22;44330;51.360;6.686;2023-08-06T11:55:50;15.70;91.90
42663;DHT22;44330;51.360;6.686;2023-08-06T11:58:26;15.70;91.70
42663;DHT22;44330;51.360;6.686;2023-08-06T12:00:55;15.70;91.50
42663;DHT22;44330;51.360;6.686;2023-08-06T12:03:29;15.60;92.00
42663;DHT22;44330;51.360;6.686;2023-08-06T12:06:07;15.60;92.10
42663;DHT22;44330;51.360;6.686;2023-08-06T12:11:37;15.70;92.50
42663;DHT22;44330;51.360;6.686;2023-08-06T12:17:18;15.70;92.30
42663;DHT22;44330;51.360;6.686;2023-08-06T12:19:49;15.80;92.30
42663;DHT22;44330;51.360;6.686;2023-08-06T12:22:16;15.80;92.10
42663;DHT22;44330;51.360;6.686;2023-08-06T12:24:46;15.90;91.70
42663;DHT22;44330;51.360;6.686;2023-08-06T12:27:12;15.80;91.50
42663;DHT22;44330;51.360;6.686;2023-08-06T12:29:43;15.80;92.00
42663;DHT22;44330;51.360;6.686;2023-08-06T12:32:12;15.80;91.90
42663;DHT22;44330;51.360;6.686;2023-08-06T12:34:38;15.90;92.10
42663;DHT22;44330;51.360;6.686;2023-08-06T12:37:05;15.90;91.70
42663;DHT22;44330;51.360;6.686;2023-08-06T12:39:31;15.90;91.50
42663;DHT22;44330;51.360;6.686;2023-08-06T12:41:58;16.00;91.90
42663;DHT22;44330;51.360;6.686;2023-08-06T12:44:24;16.00;91.30
42663;DHT22;44330;51.360;6.686;2023-08-06T12:46:51;16.10;91.30
42663;DHT22;44330;51.360;6.686;2023-08-06T12:49:17;16.20;91.70
42663;DHT22;44330;51.360;6.686;2023-08-06T12:51:43;16.20;91.00
42663;DHT22;44330;51.360;6.686;2023-08-06T12:54:09;16.30;90.50
42663;DHT22;44330;51.360;6.686;2023-08-06T12:56:34;16.30;90.30
42663;DHT22;44330;51.360;6.686;2023-08-06T12:59:00;16.20;88.90
42663;DHT22;44330;51.360;6.686;2023-08-06T13:01:25;16.30;89.30
42663;DHT22;44330;51.360;6.686;2023-08-06T13:03:51;16.20;88.30
42663;DHT22;44330;51.360;6.686;2023-08-06T13:06:17;16.30;90.10
42663;DHT22;44330;51.360;6.686;2023-08-06T13:08:42;16.20;87.60
42663;DHT22;44330;51.360;6.686;2023-08-06T13:11:08;16.20;90.10
42663;DHT22;44330;51.360;6.686;2023-08-06T13:13:33;16.20;90.60
42663;DHT22;44330;51.360;6.686;2023-08-06T13:15:59;16.30;90.60
42663;DHT22;44330;51.360;6.686;2023-08-06T13:18:25;16.30;90.10
42663;DHT22;44330;51.360;6.686;2023-08-06T13:20:53;16.30;88.20
42663;DHT22;44330;51.360;6.686;2023-08-06T13:23:19;16.20;87.70
42663;DHT22;44330;51.360;6.686;2023-08-06T13:25:45;16.30;89.00
42663;DHT22;44330;51.360;6.686;2023-08-06T13:28:11;16.30;89.40
42663;DHT22;44330;51.360;6.686;2023-08-06T13:30:39;16.30;88.70
42663;DHT22;44330;51.360;6.686;2023-08-06T13:33:08;16.10;87.00
42663;DHT22;44330;51.360;6.686;2023-08-06T13:35:34;16.00;90.50
42663;DHT22;44330;51.360;6.686;2023-08-06T13:38:00;16.10;86.60
42663;DHT22;44330;51.360;6.686;2023-08-06T13:40:28;16.00;87.40
42663;DHT22;44330;51.360;6.686;2023-08-06T13:42:55;16.20;90.40
42663;DHT22;44330;51.360;6.686;2023-08-06T13:45:21;16.20;90.10
42663;DHT22;44330;51.360;6.686;2023-08-06T13:47:46;16.30;88.50
42663;DHT22;44330;51.360;6.686;2023-08-06T13:50:13;16.40;89.90
42663;DHT22;44330;51.360;6.686;2023-08-06T13:52:39;16.40;89.00
42663;DHT22;44330;51.360;6.686;2023-08-06T13:55:05;16.30;88.10
42663;DHT22;44330;51.360;6.686;2023-08-06T13:57:34;16.40;88.30
42663;DHT22;44330;51.360;6.686;2023-08-06T13:59:59;16.40;87.50
42663;DHT22;44330;51.360;6.686;2023-08-06T14:02:25;16.40;89.10
42663;DHT22;44330;51.360;6.686;2023-08-06T14:04:55;16.50;86.80
42663;DHT22;44330;51.360;6.686;2023-08-06T14:07:20;16.50;88.00
42663;DHT22;44330;51.360;6.686;2023-08-06T14:09:46;16.60;87.10
42663;DHT22;44330;51.360;6.686;2023-08-06T14:12:13;16.60;88.00
42663;DHT22;44330;51.360;6.686;2023-08-06T14:14:39;16.70;89.30
42663;DHT22;44330;51.360;6.686;2023-08-06T14:17:05;16.80;89.70
42663;DHT22;44330;51.360;6.686;2023-08-06T14:19:30;16.80;88.20
42663;DHT22;44330;51.360;6.686;2023-08-06T14:21:56;16.90;88.80
42663;DHT22;44330;51.360;6.686;2023-08-06T14:24:21;17.00;86.20
42663;DHT22;44330;51.360;6.686;2023-08-06T14:26:47;17.00;85.70
42663;DHT22;44330;51.360;6.686;2023-08-06T14:29:13;17.00;83.00
42663;DHT22;44330;51.360;6.686;2023-08-06T14:31:40;17.00;85.10
42663;DHT22;44330;51.360;6.686;2023-08-06T14:34:06;16.90;86.50
42663;DHT22;44330;51.360;6.686;2023-08-06T14:36:32;17.00;87.40
42663;DHT22;44330;51.360;6.686;2023-08-06T14:38:57;17.00;87.20
42663;DHT22;44330;51.360;6.686;2023-08-06T14:41:23;16.90;83.00
42663;DHT22;44330;51.360;6.686;2023-08-06T14:43:52;16.80;85.70
42663;DHT22;44330;51.360;6.686;2023-08-06T14:46:19;16.80;82.50
42663;DHT22;44330;51.360;6.686;2023-08-06T14:48:44;16.90;83.40
42663;DHT22;44330;51.360;6.686;2023-08-06T14:51:10;16.70;85.20
42663;DHT22;44330;51.360;6.686;2023-08-06T14:53:36;16.90;86.20
42663;DHT22;44330;51.360;6.686;2023-08-06T14:56:01;17.00;85.10
42663;DHT22;44330;51.360;6.686;2023-08-06T14:58:27;17.10;83.40
42663;DHT22;44330;51.360;6.686;2023-08-06T15:00:53;17.20;82.90
42663;DHT22;44330;51.360;6.686;2023-08-06T15:03:18;17.20;83.70
42663;DHT22;44330;51.360;6.686;2023-08-06T15:05:47;17.10;80.00
42663;DHT22;44330;51.360;6.686;2023-08-06T15:08:12;17.10;78.60
42663;DHT22;44330;51.360;6.686;2023-08-06T15:10:38;17.30;85.30
42663;DHT22;44330;51.360;6.686;2023-08-06T15:13:04;17.50;80.10
42663;DHT22;44330;51.360;6.686;2023-08-06T15:15:29;17.50;73.70
42663;DHT22;44330;51.360;6.686;2023-08-06T15:17:55;17.30;76.80
42663;DHT22;44330;51.360;6.686;2023-08-06T15:20:21;17.30;77.60
42663;DHT22;44330;51.360;6.686;2023-08-06T15:22:47;17.50;77.60
42663;DHT22;44330;51.360;6.686;2023-08-06T15:25:13;17.70;75.10
42663;DHT22;44330;51.360;6.686;2023-08-06T15:27:39;17.80;73.60
42663;DHT22;44330;51.360;6.686;2023-08-06T15:30:06;17.90;65.90
42663;DHT22;44330;51.360;6.686;2023-08-06T15:32:32;17.80;67.20
42663;DHT22;44330;51.360;6.686;2023-08-06T15:34:58;17.60;60.30
42663;DHT22;44330;51.360;6.686;2023-08-06T15:37:25;17.70;69.60
42663;DHT22;44330;51.360;6.686;2023-08-06T15:39:52;17.70;66.80
42663;DHT22;44330;51.360;6.686;2023-08-06T15:42:18;17.60;65.10